createdAt,value
2018-10-05T00:00:41.139Z,8.63
2018-10-05T00:03:11.349Z,8.56
2018-10-05T00:05:41.645Z,8.50
2018-10-05T00:08:12.052Z,8.45
2018-10-05T00:10:43.160Z,8.42
2018-10-05T00:13:15.363Z,8.37
2018-10-05T00:15:47.621Z,8.26
2018-10-05T00:18:23.000Z,8.22
2018-10-05T00:20:54.232Z,8.29
2018-10-05T00:23:24.784Z,8.27
2018-10-05T00:25:54.863Z,8.26
2018-10-05T00:28:25.719Z,8.25
2018-10-05T00:30:55.803Z,8.15
2018-10-05T00:33:30.419Z,8.22
2018-10-05T00:36:00.166Z,8.24
2018-10-05T00:38:30.217Z,8.22
2018-10-05T00:41:00.707Z,8.20
2018-10-05T00:43:30.349Z,8.26
2018-10-05T00:45:59.574Z,8.06
2018-10-05T00:48:28.386Z,7.92
2018-10-05T00:50:57.319Z,7.99
2018-10-05T00:53:26.790Z,7.97
2018-10-05T00:55:56.429Z,8.01
2018-10-05T00:58:25.248Z,8.02
2018-10-05T01:00:54.370Z,8.00
2018-10-05T01:03:23.269Z,7.98
2018-10-05T01:05:52.021Z,8.00
2018-10-05T01:08:23.369Z,7.87
2018-10-05T01:10:54.173Z,7.86
2018-10-05T01:13:25.246Z,7.82
2018-10-05T01:15:55.717Z,7.80
2018-10-05T01:18:26.775Z,7.85
2018-10-05T01:20:59.581Z,7.80
2018-10-05T01:23:30.890Z,7.76
2018-10-05T01:26:01.480Z,7.85
2018-10-05T01:28:31.396Z,7.80
2018-10-05T01:31:02.363Z,7.71
2018-10-05T01:33:33.555Z,7.63
2018-10-05T01:36:04.290Z,7.63
2018-10-05T01:38:35.568Z,7.68
2018-10-05T01:41:05.731Z,7.62
2018-10-05T01:43:35.733Z,7.60
2018-10-05T01:46:04.850Z,7.63
2018-10-05T01:48:33.881Z,7.57
2018-10-05T01:51:02.739Z,7.61
2018-10-05T01:53:32.294Z,7.57
2018-10-05T01:56:01.179Z,7.43
2018-10-05T01:58:29.976Z,7.32
2018-10-05T02:00:59.310Z,7.38
2018-10-05T02:03:28.857Z,7.39
2018-10-05T02:05:57.640Z,7.33
2018-10-05T02:08:26.394Z,7.43
2018-10-05T02:10:55.909Z,7.45
2018-10-05T02:13:25.340Z,7.30
2018-10-05T02:15:55.168Z,7.23
2018-10-05T02:18:25.623Z,7.15
2018-10-05T02:20:55.704Z,7.23
2018-10-05T02:23:27.855Z,7.22
2018-10-05T02:25:58.907Z,7.28
2018-10-05T02:28:29.674Z,7.25
2018-10-05T02:31:00.100Z,7.28
2018-10-05T02:33:31.159Z,7.25
2018-10-05T02:36:01.649Z,7.29
2018-10-05T02:38:32.074Z,7.14
2018-10-05T02:41:03.976Z,7.27
2018-10-05T02:43:34.253Z,7.26
2018-10-05T02:46:05.579Z,7.25
2018-10-05T02:48:36.520Z,7.13
2018-10-05T02:51:06.581Z,7.00
2018-10-05T02:53:36.865Z,7.10
2018-10-05T02:56:05.360Z,7.01
2018-10-05T02:58:33.987Z,6.96
2018-10-05T03:01:13.865Z,6.95
2018-10-05T03:03:44.763Z,6.88
2018-10-05T03:06:13.808Z,6.85
2018-10-05T03:08:42.343Z,6.81
2018-10-05T03:11:11.006Z,6.83
2018-10-05T03:13:39.714Z,6.84
2018-10-05T03:16:08.520Z,6.64
2018-10-05T03:18:37.255Z,6.61
2018-10-05T03:21:06.567Z,6.62
2018-10-05T03:23:35.176Z,6.69
2018-10-05T03:26:03.724Z,6.57
2018-10-05T03:28:32.492Z,6.62
2018-10-05T03:31:01.867Z,6.58
2018-10-05T03:33:30.321Z,6.58
2018-10-05T03:35:59.437Z,6.60
2018-10-05T03:38:28.891Z,6.64
2018-10-05T03:40:57.633Z,6.69
2018-10-05T03:43:26.113Z,6.62
2018-10-05T03:45:54.543Z,6.57
2018-10-05T03:48:23.669Z,6.61
2018-10-05T03:50:52.903Z,6.51
2018-10-05T03:53:22.270Z,6.53
2018-10-05T03:55:51.107Z,6.51
2018-10-05T03:58:19.851Z,6.47
2018-10-05T04:00:49.016Z,6.37
2018-10-05T04:03:18.203Z,6.26
2018-10-05T04:05:47.869Z,6.27
2018-10-05T04:08:17.091Z,6.19
2018-10-05T04:10:46.101Z,6.26
2018-10-05T04:13:15.575Z,6.25
2018-10-05T04:15:44.414Z,6.34
2018-10-05T04:18:13.772Z,6.39
2018-10-05T04:20:43.647Z,6.40
2018-10-05T04:23:12.595Z,6.31
2018-10-05T04:25:41.607Z,6.30
2018-10-05T04:28:11.613Z,6.15
2018-10-05T04:30:40.904Z,6.14
2018-10-05T04:33:10.216Z,6.05
2018-10-05T04:35:39.296Z,6.03
2018-10-05T04:38:08.322Z,6.03
2018-10-05T04:40:37.988Z,6.11
2018-10-05T04:43:07.620Z,6.14
2018-10-05T04:45:36.285Z,6.14
2018-10-05T04:48:04.738Z,6.19
2018-10-05T04:50:33.539Z,6.15
2018-10-05T04:53:02.449Z,6.14
2018-10-05T04:55:30.928Z,6.09
2018-10-05T04:58:00.133Z,6.04
2018-10-05T05:00:29.516Z,5.95
2018-10-05T05:02:59.165Z,5.94
2018-10-05T05:05:28.163Z,5.93
2018-10-05T05:07:57.528Z,5.89
2018-10-05T05:10:26.449Z,5.86
2018-10-05T05:12:55.510Z,5.77
2018-10-05T05:15:24.261Z,5.76
2018-10-05T05:17:54.113Z,5.62
2018-10-05T05:20:23.509Z,5.56
2018-10-05T05:22:51.952Z,5.61
2018-10-05T05:25:20.437Z,5.57
2018-10-05T05:27:48.873Z,5.62
2018-10-05T05:30:18.096Z,5.61
2018-10-05T05:32:46.537Z,5.64
2018-10-05T05:35:15.788Z,5.59
2018-10-05T05:37:45.055Z,5.59
2018-10-05T05:40:15.311Z,5.60
2018-10-05T05:42:43.978Z,5.56
2018-10-05T05:45:13.481Z,5.59
2018-10-05T05:47:42.557Z,5.57
2018-10-05T05:50:11.263Z,5.60
2018-10-05T05:52:40.936Z,5.54
2018-10-05T05:55:10.049Z,5.54
2018-10-05T05:57:39.238Z,5.62
2018-10-05T06:00:08.379Z,5.74
2018-10-05T06:02:37.556Z,5.66
2018-10-05T06:05:06.392Z,5.72
2018-10-05T06:07:34.845Z,5.74
2018-10-05T06:10:04.142Z,5.85
2018-10-05T06:12:32.830Z,5.95
2018-10-05T06:15:02.502Z,6.07
2018-10-05T06:17:31.373Z,6.10
2018-10-05T06:20:01.191Z,6.06
2018-10-05T06:22:29.960Z,5.95
2018-10-05T06:24:59.389Z,6.08
2018-10-05T06:27:28.343Z,6.13
2018-10-05T06:29:58.083Z,6.11
2018-10-05T06:32:27.157Z,6.10
2018-10-05T06:34:55.985Z,6.13
2018-10-05T06:37:28.295Z,6.17
2018-10-05T06:39:57.864Z,6.12
2018-10-05T06:42:28.327Z,6.13
2018-10-05T06:44:57.965Z,6.10
2018-10-05T06:47:26.900Z,6.18
2018-10-05T06:49:57.267Z,6.23
2018-10-05T06:52:26.443Z,6.45
2018-10-05T06:54:54.861Z,6.57
2018-10-05T06:57:24.408Z,6.62
2018-10-05T06:59:53.175Z,6.80
2018-10-05T07:02:22.645Z,6.89
2018-10-05T07:04:51.086Z,6.88
2018-10-05T07:07:19.680Z,6.84
2018-10-05T07:09:49.490Z,6.97
2018-10-05T07:12:18.445Z,6.99
2018-10-05T07:14:47.553Z,7.09
2018-10-05T07:17:16.024Z,7.28
2018-10-05T07:19:44.948Z,7.44
2018-10-05T07:22:13.688Z,7.58
2018-10-05T07:24:42.687Z,7.76
2018-10-05T07:27:11.973Z,7.86
2018-10-05T07:29:41.731Z,7.92
2018-10-05T07:32:11.408Z,8.04
2018-10-05T07:34:40.624Z,8.19
2018-10-05T07:37:10.008Z,8.32
2018-10-05T07:39:39.285Z,8.39
2018-10-05T07:42:08.538Z,8.46
2018-10-05T07:44:37.388Z,8.58
2018-10-05T07:47:07.093Z,8.72
2018-10-05T07:49:35.797Z,8.86
2018-10-05T07:52:05.156Z,9.07
2018-10-05T07:54:33.815Z,9.18
2018-10-05T07:57:04.679Z,9.32
2018-10-05T07:59:33.780Z,9.56
2018-10-05T08:02:03.164Z,9.61
2018-10-05T08:04:32.217Z,9.68
2018-10-05T08:07:01.204Z,9.85
2018-10-05T08:09:30.785Z,10.10
2018-10-05T08:12:00.293Z,10.28
2018-10-05T08:14:28.966Z,10.33
2018-10-05T08:16:58.274Z,10.51
2018-10-05T08:19:26.943Z,10.70
2018-10-05T08:21:56.777Z,10.81
2018-10-05T08:24:26.115Z,10.95
2018-10-05T08:26:55.446Z,11.24
2018-10-05T08:29:24.440Z,11.43
2018-10-05T08:31:53.595Z,11.67
2018-10-05T08:34:22.438Z,11.76
2018-10-05T08:36:51.509Z,11.95
2018-10-05T08:39:19.995Z,12.23
2018-10-05T08:41:48.864Z,12.42
2018-10-05T08:44:17.837Z,12.61
2018-10-05T08:46:46.772Z,12.83
2018-10-05T08:49:16.116Z,13.05
2018-10-05T08:51:45.978Z,13.38
2018-10-05T08:54:14.813Z,13.71
2018-10-05T08:56:43.809Z,13.86
2018-10-05T08:59:12.258Z,14.01
2018-10-05T09:01:41.662Z,14.02
2018-10-05T09:04:10.729Z,14.30
2018-10-05T09:06:39.746Z,14.41
2018-10-05T09:09:09.028Z,14.64
2018-10-05T09:11:38.187Z,14.90
2018-10-05T09:14:07.656Z,14.95
2018-10-05T09:16:36.839Z,15.23
2018-10-05T09:19:05.673Z,15.43
2018-10-05T09:21:34.612Z,15.11
2018-10-05T09:24:05.243Z,15.43
2018-10-05T09:26:34.245Z,15.55
2018-10-05T09:29:03.572Z,15.65
2018-10-05T09:31:32.934Z,15.92
2018-10-05T09:34:02.438Z,16.11
2018-10-05T09:36:31.313Z,16.24
2018-10-05T09:39:00.306Z,16.50
2018-10-05T09:41:29.609Z,16.79
2018-10-05T09:43:59.777Z,16.71
2018-10-05T09:46:29.875Z,16.92
2018-10-05T09:48:58.854Z,16.88
2018-10-05T09:51:28.046Z,17.22
2018-10-05T09:53:57.142Z,17.26
2018-10-05T09:56:26.241Z,17.28
2018-10-05T09:58:55.630Z,17.39
2018-10-05T10:01:30.569Z,17.62
2018-10-05T10:03:59.737Z,17.63
2018-10-05T10:06:29.796Z,17.78
2018-10-05T10:08:58.603Z,17.94
2018-10-05T10:11:27.593Z,17.76
2018-10-05T10:13:56.340Z,17.91
2018-10-05T10:16:25.198Z,18.06
2018-10-05T10:18:55.743Z,18.36
2018-10-05T10:21:24.196Z,18.47
2018-10-05T10:23:53.650Z,18.66
2018-10-05T10:26:22.834Z,18.83
2018-10-05T10:28:51.428Z,18.75
2018-10-05T10:31:19.710Z,19.11
2018-10-05T10:33:48.500Z,19.07
2018-10-05T10:36:17.109Z,19.38
2018-10-05T10:38:45.605Z,19.64
2018-10-05T10:41:15.999Z,19.49
2018-10-05T10:43:44.791Z,19.68
2018-10-05T10:46:13.601Z,19.84
2018-10-05T10:48:42.714Z,18.96
2018-10-05T10:51:11.732Z,19.58
2018-10-05T10:53:41.340Z,19.94
2018-10-05T10:56:10.183Z,20.01
2018-10-05T10:58:39.833Z,20.30
2018-10-05T11:01:09.113Z,20.18
2018-10-05T11:03:38.270Z,20.44
2018-10-05T11:06:07.475Z,20.37
2018-10-05T11:08:36.232Z,20.45
2018-10-05T11:11:05.699Z,20.74
2018-10-05T11:13:34.402Z,20.04
2018-10-05T11:16:02.854Z,20.08
2018-10-05T11:18:32.006Z,20.23
2018-10-05T11:21:01.393Z,19.83
2018-10-05T11:23:30.769Z,20.29
2018-10-05T11:25:59.666Z,20.43
2018-10-05T11:28:28.359Z,20.17
2018-10-05T11:30:57.963Z,20.64
2018-10-05T11:33:26.856Z,20.93
2018-10-05T11:35:56.032Z,21.29
2018-10-05T11:38:25.078Z,21.59
2018-10-05T11:40:54.259Z,21.76
2018-10-05T11:43:24.143Z,21.79
2018-10-05T11:45:53.796Z,21.47
2018-10-05T11:48:22.589Z,21.68
2018-10-05T11:50:51.837Z,22.00
2018-10-05T11:53:21.345Z,21.73
2018-10-05T11:55:51.092Z,21.46
2018-10-05T11:58:20.127Z,21.64
2018-10-05T12:00:49.251Z,21.86
2018-10-05T12:03:18.017Z,21.47
2018-10-05T12:05:47.089Z,21.32
2018-10-05T12:08:16.551Z,20.74
2018-10-05T12:10:45.937Z,21.45
2018-10-05T12:13:15.045Z,21.65
2018-10-05T12:15:44.597Z,21.80
2018-10-05T12:18:13.696Z,22.15
2018-10-05T12:20:43.216Z,22.34
2018-10-05T12:23:12.391Z,22.66
2018-10-05T12:25:41.739Z,22.94
2018-10-05T12:28:10.753Z,23.21
2018-10-05T12:30:40.064Z,23.47
2018-10-05T12:33:08.940Z,23.16
2018-10-05T12:35:38.068Z,22.96
2018-10-05T12:38:07.898Z,23.38
2018-10-05T12:40:36.602Z,23.21
2018-10-05T12:43:05.709Z,23.12
2018-10-05T12:45:35.588Z,22.99
2018-10-05T12:48:04.751Z,22.51
2018-10-05T12:50:34.000Z,23.23
2018-10-05T12:53:03.451Z,23.07
2018-10-05T12:55:32.732Z,23.09
2018-10-05T12:58:01.991Z,23.43
2018-10-05T13:00:31.305Z,23.31
2018-10-05T13:02:59.773Z,23.38
2018-10-05T13:05:28.746Z,23.34
2018-10-05T13:07:58.105Z,24.03
2018-10-05T13:10:27.848Z,23.92
2018-10-05T13:12:56.426Z,24.37
2018-10-05T13:15:25.206Z,24.74
2018-10-05T13:17:55.653Z,24.44
2018-10-05T13:20:24.589Z,24.28
2018-10-05T13:22:54.064Z,24.74
2018-10-05T13:25:23.316Z,24.99
2018-10-05T13:27:52.742Z,24.67
2018-10-05T13:30:21.913Z,24.76
2018-10-05T13:32:51.796Z,25.14
2018-10-05T13:35:20.904Z,24.98
2018-10-05T13:37:50.209Z,24.76
2018-10-05T13:40:19.492Z,24.94
2018-10-05T13:42:48.400Z,24.86
2018-10-05T13:45:18.048Z,24.79
2018-10-05T13:47:47.094Z,24.94
2018-10-05T13:50:16.597Z,25.40
2018-10-05T13:52:46.331Z,25.30
2018-10-05T13:55:15.056Z,25.34
2018-10-05T13:57:43.977Z,25.58
2018-10-05T14:00:13.664Z,26.12
2018-10-05T14:02:42.798Z,26.16
2018-10-05T14:05:12.619Z,26.75
2018-10-05T14:07:41.752Z,26.08
2018-10-05T14:10:11.503Z,26.39
2018-10-05T14:12:41.321Z,26.42
2018-10-05T14:15:10.900Z,26.94
2018-10-05T14:17:40.215Z,27.09
2018-10-05T14:20:10.069Z,26.36
2018-10-05T14:22:39.479Z,26.90
2018-10-05T14:25:08.451Z,26.88
2018-10-05T14:27:37.789Z,27.01
2018-10-05T14:30:07.716Z,27.18
2018-10-05T14:32:37.620Z,27.72
2018-10-05T14:35:07.439Z,28.00
2018-10-05T14:37:37.092Z,28.05
2018-10-05T14:40:06.342Z,28.10
2018-10-05T14:42:36.087Z,27.54
2018-10-05T14:45:05.115Z,27.54
2018-10-05T14:47:34.390Z,27.67
2018-10-05T14:50:03.222Z,28.05
2018-10-05T14:52:33.178Z,28.30
2018-10-05T14:55:02.394Z,28.65
2018-10-05T14:57:33.315Z,29.20
2018-10-05T15:00:02.264Z,29.24
2018-10-05T15:02:31.234Z,29.66
2018-10-05T15:05:01.198Z,28.07
2018-10-05T15:07:30.770Z,28.19
2018-10-05T15:10:00.287Z,28.34
2018-10-05T15:12:29.330Z,28.57
2018-10-05T15:14:59.385Z,28.99
2018-10-05T15:17:29.080Z,29.22
2018-10-05T15:19:59.063Z,28.82
2018-10-05T15:22:28.927Z,29.13
2018-10-05T15:24:58.071Z,29.34
2018-10-05T15:27:27.145Z,28.76
2018-10-05T15:29:56.741Z,29.34
2018-10-05T15:32:25.613Z,28.86
2018-10-05T15:34:54.840Z,29.44
2018-10-05T15:37:25.261Z,29.04
2018-10-05T15:39:54.245Z,28.64
2018-10-05T15:42:23.738Z,28.92
2018-10-05T15:44:53.101Z,29.69
2018-10-05T15:47:22.734Z,29.61
2018-10-05T15:49:52.603Z,29.29
2018-10-05T15:52:22.457Z,29.19
2018-10-05T15:54:51.922Z,28.50
2018-10-05T15:57:21.720Z,29.28
2018-10-05T15:59:51.021Z,28.79
2018-10-05T16:02:21.658Z,28.95
2018-10-05T16:04:51.961Z,28.53
2018-10-05T16:07:21.577Z,28.09
2018-10-05T16:09:51.193Z,28.44
2018-10-05T16:12:19.702Z,28.21
2018-10-05T16:14:49.132Z,28.23
2018-10-05T16:17:18.284Z,28.26
2018-10-05T16:19:47.785Z,28.11
2018-10-05T16:22:17.478Z,27.70
2018-10-05T16:24:47.057Z,27.30
2018-10-05T16:27:17.148Z,27.15
2018-10-05T16:29:46.959Z,26.70
2018-10-05T16:32:16.405Z,26.35
2018-10-05T16:34:45.917Z,25.89
2018-10-05T16:37:15.447Z,25.27
2018-10-05T16:39:44.295Z,24.45
2018-10-05T16:42:14.274Z,24.08
2018-10-05T16:44:43.512Z,23.69
2018-10-05T16:47:12.152Z,23.54
2018-10-05T16:49:41.794Z,23.43
2018-10-05T16:52:11.608Z,23.08
2018-10-05T16:54:40.414Z,22.76
2018-10-05T16:57:10.288Z,22.48
2018-10-05T16:59:41.983Z,22.09
2018-10-05T17:02:12.517Z,21.97
2018-10-05T17:04:41.122Z,21.93
2018-10-05T17:07:10.676Z,21.76
2018-10-05T17:09:40.942Z,21.70
2018-10-05T17:12:10.595Z,21.47
2018-10-05T17:14:39.721Z,21.27
2018-10-05T17:17:09.076Z,20.80
2018-10-05T17:19:38.575Z,20.51
2018-10-05T17:22:08.097Z,20.32
2018-10-05T17:24:36.938Z,20.13
2018-10-05T17:27:06.068Z,19.92
2018-10-05T17:29:35.482Z,19.81
2018-10-05T17:32:05.860Z,19.83
2018-10-05T17:34:35.214Z,19.84
2018-10-05T17:37:04.029Z,19.80
2018-10-05T17:39:33.850Z,19.48
2018-10-05T17:42:02.513Z,19.22
2018-10-05T17:44:31.212Z,18.96
2018-10-05T17:47:00.050Z,18.78
2018-10-05T17:49:29.408Z,18.71
2018-10-05T17:51:58.178Z,18.68
2018-10-05T17:54:28.873Z,18.57
2018-10-05T17:56:58.654Z,18.77
2018-10-05T17:59:27.117Z,18.76
2018-10-05T18:01:57.519Z,18.71
2018-10-05T18:04:26.735Z,18.66
2018-10-05T18:06:56.832Z,18.55
2018-10-05T18:09:25.991Z,18.24
2018-10-05T18:11:54.919Z,18.14
2018-10-05T18:14:24.653Z,17.87
2018-10-05T18:16:53.457Z,17.88
2018-10-05T18:19:22.101Z,17.83
2018-10-05T18:21:50.937Z,17.70
2018-10-05T18:24:20.318Z,17.62
2018-10-05T18:26:49.200Z,17.49
2018-10-05T18:29:18.589Z,17.39
2018-10-05T18:31:47.492Z,17.36
2018-10-05T18:34:16.668Z,17.25
2018-10-05T18:36:46.101Z,17.25
2018-10-05T18:39:15.849Z,17.15
2018-10-05T18:41:44.897Z,17.29
2018-10-05T18:44:13.738Z,17.17
2018-10-05T18:46:43.644Z,16.94
2018-10-05T18:49:12.291Z,16.65
2018-10-05T18:51:42.353Z,16.77
2018-10-05T18:54:11.430Z,16.84
2018-10-05T18:56:51.669Z,16.64
2018-10-05T18:59:22.670Z,16.56
2018-10-05T19:01:51.985Z,16.39
2018-10-05T19:04:22.434Z,16.44
2018-10-05T19:06:52.691Z,16.46
2018-10-05T19:09:22.492Z,16.40
2018-10-05T19:11:51.528Z,16.40
2018-10-05T19:14:20.252Z,16.32
2018-10-05T19:16:50.509Z,16.18
2018-10-05T19:19:21.096Z,16.12
2018-10-05T19:21:50.877Z,16.15
2018-10-05T19:24:19.806Z,16.07
2018-10-05T19:26:49.799Z,15.97
2018-10-05T19:29:19.122Z,16.17
2018-10-05T19:31:49.144Z,15.82
2018-10-05T19:34:19.264Z,15.65
2018-10-05T19:36:48.651Z,15.60
2018-10-05T19:39:17.737Z,15.49
2018-10-05T19:41:47.565Z,15.42
2018-10-05T19:44:18.085Z,15.44
2018-10-05T19:46:47.383Z,15.40
2018-10-05T19:49:17.232Z,15.41
2018-10-05T19:51:47.253Z,15.51
2018-10-05T19:54:16.135Z,15.40
2018-10-05T19:56:45.529Z,15.34
2018-10-05T19:59:14.700Z,15.26
2018-10-05T20:01:43.224Z,15.04
2018-10-05T20:04:13.083Z,14.79
2018-10-05T20:06:42.296Z,14.65
2018-10-05T20:09:11.401Z,14.85
2018-10-05T20:11:41.209Z,14.63
2018-10-05T20:14:10.125Z,14.43
2018-10-05T20:16:39.762Z,14.35
2018-10-05T20:19:08.642Z,14.35
2018-10-05T20:21:38.352Z,14.29
2018-10-05T20:24:07.923Z,14.38
2018-10-05T20:26:37.720Z,14.43
2018-10-05T20:29:06.274Z,14.33
2018-10-05T20:31:35.875Z,14.46
2018-10-05T20:34:04.693Z,14.37
2018-10-05T20:36:34.959Z,14.31
2018-10-05T20:39:06.080Z,14.21
2018-10-05T20:41:34.979Z,14.14
2018-10-05T20:44:05.158Z,14.08
2018-10-05T20:46:34.413Z,14.11
2018-10-05T20:49:03.506Z,14.14
2018-10-05T20:51:32.675Z,14.25
2018-10-05T20:54:02.272Z,14.21
2018-10-05T20:56:31.292Z,14.08
2018-10-05T20:59:00.141Z,14.06
2018-10-05T21:01:29.498Z,13.82
2018-10-05T21:03:59.396Z,13.77
2018-10-05T21:06:28.432Z,13.75
2018-10-05T21:08:58.650Z,13.77
2018-10-05T21:11:27.847Z,13.77
2018-10-05T21:13:57.615Z,13.79
2018-10-05T21:16:27.365Z,13.82
2018-10-05T21:18:56.472Z,13.53
2018-10-05T21:21:26.419Z,13.47
2018-10-05T21:23:55.956Z,13.45
2018-10-05T21:26:25.701Z,13.44
2018-10-05T21:28:54.839Z,13.40
2018-10-05T21:31:24.664Z,13.39
2018-10-05T21:33:55.106Z,13.30
2018-10-05T21:36:25.375Z,13.26
2018-10-05T21:38:55.384Z,13.24
2018-10-05T21:41:24.973Z,13.17
2018-10-05T21:43:54.049Z,13.18
2018-10-05T21:46:23.644Z,13.17
2018-10-05T21:48:52.408Z,13.03
2018-10-05T21:51:21.407Z,13.08
2018-10-05T21:53:50.067Z,13.03
2018-10-05T21:56:19.131Z,12.89
2018-10-05T21:58:47.934Z,12.79
2018-10-05T22:01:17.643Z,12.73
2018-10-05T22:03:46.988Z,12.56
2018-10-05T22:06:17.083Z,12.54
2018-10-05T22:08:46.284Z,12.54
2018-10-05T22:11:16.028Z,12.59
2018-10-05T22:13:45.048Z,12.50
2018-10-05T22:16:15.417Z,12.41
2018-10-05T22:18:44.663Z,12.40
2018-10-05T22:21:13.720Z,12.42
2018-10-05T22:23:43.439Z,12.15
2018-10-05T22:26:12.832Z,12.07
2018-10-05T22:28:42.097Z,12.22
2018-10-05T22:31:11.804Z,12.24
2018-10-05T22:33:40.972Z,12.28
2018-10-05T22:36:09.909Z,12.14
2018-10-05T22:38:39.225Z,12.16
2018-10-05T22:41:08.292Z,12.11
2018-10-05T22:43:38.641Z,12.14
2018-10-05T22:46:07.699Z,12.11
2018-10-05T22:48:36.833Z,12.09
2018-10-05T22:51:06.216Z,12.11
2018-10-05T22:53:35.754Z,12.09
2018-10-05T22:56:05.716Z,12.03
2018-10-05T22:58:35.007Z,11.88
2018-10-05T23:01:04.575Z,11.85
2018-10-05T23:03:33.848Z,11.86
2018-10-05T23:06:02.980Z,11.78
2018-10-05T23:08:32.782Z,11.86
2018-10-05T23:11:02.256Z,11.82
2018-10-05T23:13:31.405Z,11.70
2018-10-05T23:16:01.117Z,11.78
2018-10-05T23:18:31.334Z,11.58
2018-10-05T23:21:00.537Z,11.54
2018-10-05T23:23:30.355Z,11.59
2018-10-05T23:25:59.880Z,11.61
2018-10-05T23:28:29.005Z,11.54
2018-10-05T23:30:59.230Z,11.52
2018-10-05T23:33:28.542Z,11.56
2018-10-05T23:35:57.621Z,11.60
2018-10-05T23:38:27.472Z,11.53
2018-10-05T23:40:56.881Z,11.56
2018-10-05T23:43:26.558Z,11.39
2018-10-05T23:45:56.543Z,11.45
2018-10-05T23:48:25.522Z,11.38
2018-10-05T23:50:54.769Z,11.31
2018-10-05T23:53:24.185Z,11.28
2018-10-05T23:55:54.468Z,11.32
2018-10-05T23:58:23.233Z,11.30
